sensor_id;sensor_type;location;lat;lon;timestamp;pressure;altitude;pressure_sealevel;temperature;humidity
71970;BME280;59838;52.152;5.436;2023-05-10T00:01:05;100965.13;;;12.23;100.00
71970;BME280;59838;52.152;5.436;2023-05-10T00:03:31;100966.13;;;12.22;100.00
71970;BME280;59838;52.152;5.436;2023-05-10T00:05:58;100956.72;;;12.21;100.00
71970;BME280;59838;52.152;5.436;2023-05-10T00:08:24;100959.50;;;12.20;100.00
71970;BME280;59838;52.152;5.436;2023-05-10T00:10:52;100953.47;;;12.19;100.00
71970;BME280;59838;52.152;5.436;2023-05-10T00:13:19;100954.47;;;12.18;100.00
71970;BME280;59838;52.152;5.436;2023-05-10T00:15:45;100949.28;;;12.18;100.00
71970;BME280;59838;52.152;5.436;2023-05-10T00:18:12;100950.88;;;12.19;100.00
71970;BME280;59838;52.152;5.436;2023-05-10T00:20:38;100956.06;;;12.19;100.00
71970;BME280;59838;52.152;5.436;2023-05-10T00:23:05;100951.25;;;12.16;100.00
71970;BME280;59838;52.152;5.436;2023-05-10T00:25:31;100953.84;;;12.16;100.00
71970;BME280;59838;52.152;5.436;2023-05-10T00:27:57;100947.03;;;12.15;100.00
71970;BME280;59838;52.152;5.436;2023-05-10T00:30:24;100945.44;;;12.14;100.00
71970;BME280;59838;52.152;5.436;2023-05-10T00:32:51;100949.47;;;12.17;100.00
71970;BME280;59838;52.152;5.436;2023-05-10T00:35:18;100950.25;;;12.17;100.00
71970;BME280;59838;52.152;5.436;2023-05-10T00:37:44;100947.47;;;12.19;100.00
71970;BME280;59838;52.152;5.436;2023-05-10T00:40:11;100946.47;;;12.20;100.00
71970;BME280;59838;52.152;5.436;2023-05-10T00:42:37;100948.06;;;12.21;100.00
71970;BME280;59838;52.152;5.436;2023-05-10T00:45:04;100953.09;;;12.22;100.00
71970;BME280;59838;52.152;5.436;2023-05-10T00:47:31;100948.53;;;12.24;100.00
71970;BME280;59838;52.152;5.436;2023-05-10T00:49:59;100958.53;;;12.28;100.00
71970;BME280;59838;52.152;5.436;2023-05-10T00:52:28;100949.72;;;12.29;100.00
71970;BME280;59838;52.152;5.436;2023-05-10T00:54:55;100945.31;;;12.29;100.00
71970;BME280;59838;52.152;5.436;2023-05-10T00:57:22;100938.34;;;12.30;100.00
71970;BME280;59838;52.152;5.436;2023-05-10T00:59:50;100953.78;;;12.31;100.00
71970;BME280;59838;52.152;5.436;2023-05-10T01:02:16;100949.34;;;12.32;100.00
71970;BME280;59838;52.152;5.436;2023-05-10T01:04:43;100943.97;;;12.33;100.00
71970;BME280;59838;52.152;5.436;2023-05-10T01:07:10;100952.38;;;12.35;100.00
71970;BME280;59838;52.152;5.436;2023-05-10T01:09:36;100947.97;;;12.36;100.00
71970;BME280;59838;52.152;5.436;2023-05-10T01:12:03;100947.16;;;12.35;100.00
71970;BME280;59838;52.152;5.436;2023-05-10T01:14:33;100946.19;;;12.36;100.00
71970;BME280;59838;52.152;5.436;2023-05-10T01:17:00;100944.38;;;12.37;100.00
71970;BME280;59838;52.152;5.436;2023-05-10T01:19:29;100952.00;;;12.38;100.00
71970;BME280;59838;52.152;5.436;2023-05-10T01:24:56;100955.59;;;12.37;100.00
71970;BME280;59838;52.152;5.436;2023-05-10T01:35:51;100953.16;;;12.36;100.00
71970;BME280;59838;52.152;5.436;2023-05-10T01:38:47;100947.16;;;12.35;100.00
71970;BME280;59838;52.152;5.436;2023-05-10T01:41:26;100955.16;;;12.34;100.00
71970;BME280;59838;52.152;5.436;2023-05-10T01:46:36;100949.34;;;12.32;100.00
71970;BME280;59838;52.152;5.436;2023-05-10T01:49:10;100955.56;;;12.31;100.00
71970;BME280;59838;52.152;5.436;2023-05-10T01:51:43;100960.75;;;12.31;100.00
71970;BME280;59838;52.152;5.436;2023-05-10T01:54:12;100954.56;;;12.32;100.00
71970;BME280;59838;52.152;5.436;2023-05-10T01:56:40;100951.97;;;12.32;100.00
71970;BME280;59838;52.152;5.436;2023-05-10T01:59:13;100956.19;;;12.33;100.00
71970;BME280;59838;52.152;5.436;2023-05-10T02:01:41;100956.19;;;12.33;100.00
71970;BME280;59838;52.152;5.436;2023-05-10T02:04:10;100958.78;;;12.33;100.00
71970;BME280;59838;52.152;5.436;2023-05-10T02:06:39;100957.97;;;12.32;100.00
71970;BME280;59838;52.152;5.436;2023-05-10T02:09:07;100951.97;;;12.32;100.00
71970;BME280;59838;52.152;5.436;2023-05-10T02:11:37;100959.16;;;12.30;100.00
71970;BME280;59838;52.152;5.436;2023-05-10T02:14:06;100959.56;;;12.27;100.00
71970;BME280;59838;52.152;5.436;2023-05-10T02:16:35;100963.94;;;12.26;100.00
71970;BME280;59838;52.152;5.436;2023-05-10T02:19:03;100961.31;;;12.26;100.00
71970;BME280;59838;52.152;5.436;2023-05-10T02:21:30;100959.56;;;12.27;100.00
71970;BME280;59838;52.152;5.436;2023-05-10T02:23:57;100962.94;;;12.27;100.00
71970;BME280;59838;52.152;5.436;2023-05-10T02:26:25;100965.56;;;12.27;100.00
71970;BME280;59838;52.152;5.436;2023-05-10T02:28:53;100962.94;;;12.27;100.00
71970;BME280;59838;52.152;5.436;2023-05-10T02:31:21;100972.38;;;12.28;100.00
71970;BME280;59838;52.152;5.436;2023-05-10T02:33:48;100967.97;;;12.29;100.00
71970;BME280;59838;52.152;5.436;2023-05-10T02:36:16;100979.19;;;12.29;100.00
71970;BME280;59838;52.152;5.436;2023-05-10T02:38:44;100979.19;;;12.29;100.00
71970;BME280;59838;52.152;5.436;2023-05-10T02:41:12;100979.38;;;12.28;100.00
71970;BME280;59838;52.152;5.436;2023-05-10T02:43:40;100979.19;;;12.29;100.00
71970;BME280;59838;52.152;5.436;2023-05-10T02:46:07;100984.41;;;12.29;100.00
71970;BME280;59838;52.152;5.436;2023-05-10T02:48:33;100986.22;;;12.29;100.00
71970;BME280;59838;52.152;5.436;2023-05-10T02:51:04;100989.59;;;12.29;100.00
71970;BME280;59838;52.152;5.436;2023-05-10T02:53:33;100983.59;;;12.29;100.00
71970;BME280;59838;52.152;5.436;2023-05-10T02:56:06;100979.38;;;12.28;100.00
71970;BME280;59838;52.152;5.436;2023-05-10T02:58:35;100983.78;;;12.27;100.00
71970;BME280;59838;52.152;5.436;2023-05-10T03:01:02;100978.94;;;12.24;100.00
71970;BME280;59838;52.152;5.436;2023-05-10T03:03:28;100983.38;;;12.23;100.00
71970;BME280;59838;52.152;5.436;2023-05-10T03:05:55;100983.56;;;12.22;100.00
71970;BME280;59838;52.152;5.436;2023-05-10T03:08:23;100987.78;;;12.23;100.00
71970;BME280;59838;52.152;5.436;2023-05-10T03:11:16;100993.97;;;12.22;100.00
71970;BME280;59838;52.152;5.436;2023-05-10T03:16:42;100991.50;;;12.14;100.00
71970;BME280;59838;52.152;5.436;2023-05-10T03:19:17;100989.88;;;12.13;100.00
71970;BME280;59838;52.152;5.436;2023-05-10T03:21:50;100985.50;;;12.13;100.00
71970;BME280;59838;52.152;5.436;2023-05-10T03:24:21;100992.31;;;12.14;100.00
71970;BME280;59838;52.152;5.436;2023-05-10T03:26:50;100996.72;;;12.14;100.00
71970;BME280;59838;52.152;5.436;2023-05-10T03:29:20;100999.94;;;12.16;100.00
71970;BME280;59838;52.152;5.436;2023-05-10T03:31:46;101001.13;;;12.13;100.00
71970;BME280;59838;52.152;5.436;2023-05-10T03:34:13;101003.75;;;12.13;100.00
71970;BME280;59838;52.152;5.436;2023-05-10T03:36:39;101011.28;;;12.08;100.00
71970;BME280;59838;52.152;5.436;2023-05-10T03:39:06;100999.47;;;12.05;100.00
71970;BME280;59838;52.152;5.436;2023-05-10T03:41:32;101009.06;;;12.05;100.00
71970;BME280;59838;52.152;5.436;2023-05-10T03:43:59;100993.44;;;12.05;100.00
71970;BME280;59838;52.152;5.436;2023-05-10T03:46:25;100999.66;;;12.04;100.00
71970;BME280;59838;52.152;5.436;2023-05-10T03:48:52;100992.81;;;12.03;100.00
71970;BME280;59838;52.152;5.436;2023-05-10T03:51:18;101003.22;;;12.03;100.00
71970;BME280;59838;52.152;5.436;2023-05-10T03:53:45;101005.84;;;12.03;100.00
71970;BME280;59838;52.152;5.436;2023-05-10T03:56:11;101010.25;;;12.02;100.00
71970;BME280;59838;52.152;5.436;2023-05-10T03:58:37;101004.03;;;12.03;100.00
71970;BME280;59838;52.152;5.436;2023-05-10T04:01:04;101010.66;;;12.06;100.00
71970;BME280;59838;52.152;5.436;2023-05-10T04:03:31;101005.47;;;12.06;100.00
71970;BME280;59838;52.152;5.436;2023-05-10T04:06:01;101010.66;;;12.06;100.00
71970;BME280;59838;52.152;5.436;2023-05-10T04:08:28;101012.28;;;12.07;100.00
71970;BME280;59838;52.152;5.436;2023-05-10T04:11:04;101013.88;;;12.08;100.00
71970;BME280;59838;52.152;5.436;2023-05-10T04:13:31;101012.09;;;12.09;100.00
71970;BME280;59838;52.152;5.436;2023-05-10T04:15:58;101018.31;;;12.07;100.00
71970;BME280;59838;52.152;5.436;2023-05-10T04:18:24;101019.09;;;12.08;100.00
71970;BME280;59838;52.152;5.436;2023-05-10T04:20:51;101013.09;;;12.07;100.00
71970;BME280;59838;52.152;5.436;2023-05-10T04:23:17;101012.91;;;12.09;100.00
71970;BME280;59838;52.152;5.436;2023-05-10T04:25:44;101014.72;;;12.09;100.00
71970;BME280;59838;52.152;5.436;2023-05-10T04:28:10;101017.94;;;12.11;100.00
71970;BME280;59838;52.152;5.436;2023-05-10T04:30:37;101013.69;;;12.10;100.00
71970;BME280;59838;52.152;5.436;2023-05-10T04:33:03;101015.31;;;12.11;100.00
71970;BME280;59838;52.152;5.436;2023-05-10T04:35:30;101015.13;;;12.12;100.00
71970;BME280;59838;52.152;5.436;2023-05-10T04:37:56;101019.38;;;12.13;100.00
71970;BME280;59838;52.152;5.436;2023-05-10T04:40:23;101016.75;;;12.13;100.00
71970;BME280;59838;52.152;5.436;2023-05-10T04:42:49;101017.56;;;12.14;100.00
71970;BME280;59838;52.152;5.436;2023-05-10T04:45:16;101015.75;;;12.14;100.00
71970;BME280;59838;52.152;5.436;2023-05-10T04:47:43;101017.56;;;12.14;100.00
71970;BME280;59838;52.152;5.436;2023-05-10T04:50:09;101027.78;;;12.15;100.00
71970;BME280;59838;52.152;5.436;2023-05-10T04:52:36;101034.22;;;12.19;100.00
71970;BME280;59838;52.152;5.436;2023-05-10T04:55:02;101024.44;;;12.21;100.00
71970;BME280;59838;52.152;5.436;2023-05-10T04:57:29;101037.28;;;12.23;100.00
71970;BME280;59838;52.152;5.436;2023-05-10T04:59:59;101043.28;;;12.23;100.00
71970;BME280;59838;52.152;5.436;2023-05-10T05:02:26;101039.69;;;12.24;100.00
71970;BME280;59838;52.152;5.436;2023-05-10T05:04:52;101035.28;;;12.25;100.00
71970;BME280;59838;52.152;5.436;2023-05-10T05:07:19;101038.69;;;12.25;100.00
71970;BME280;59838;52.152;5.436;2023-05-10T05:09:45;101044.31;;;12.29;100.00
71970;BME280;59838;52.152;5.436;2023-05-10T05:12:12;101041.69;;;12.29;100.00
71970;BME280;59838;52.152;5.436;2023-05-10T05:14:40;101051.94;;;12.31;100.00
71970;BME280;59838;52.152;5.436;2023-05-10T05:17:07;101041.34;;;12.32;100.00
71970;BME280;59838;52.152;5.436;2023-05-10T05:19:34;101042.75;;;12.35;100.00
71970;BME280;59838;52.152;5.436;2023-05-10T05:22:01;101050.22;;;12.38;100.00
71970;BME280;59838;52.152;5.436;2023-05-10T05:24:27;101050.03;;;12.39;100.00
71970;BME280;59838;52.152;5.436;2023-05-10T05:26:54;101051.81;;;12.39;100.00
71970;BME280;59838;52.152;5.436;2023-05-10T05:29:20;101063.84;;;12.40;100.00
71970;BME280;59838;52.152;5.436;2023-05-10T05:31:47;101059.00;;;12.37;100.00
71970;BME280;59838;52.152;5.436;2023-05-10T05:34:13;101061.63;;;12.37;100.00
71970;BME280;59838;52.152;5.436;2023-05-10T05:36:40;101062.22;;;12.39;100.00
71970;BME280;59838;52.152;5.436;2023-05-10T05:39:07;101070.69;;;12.41;100.00
71970;BME280;59838;52.152;5.436;2023-05-10T05:41:34;101069.47;;;12.43;100.00
71970;BME280;59838;52.152;5.436;2023-05-10T05:44:00;101067.88;;;12.42;100.00
71970;BME280;59838;52.152;5.436;2023-05-10T05:46:27;101067.06;;;12.42;100.00
71970;BME280;59838;52.152;5.436;2023-05-10T05:48:53;101070.31;;;12.44;100.00
71970;BME280;59838;52.152;5.436;2023-05-10T05:51:20;101069.09;;;12.47;100.00
71970;BME280;59838;52.152;5.436;2023-05-10T05:53:46;101074.13;;;12.48;100.00
71970;BME280;59838;52.152;5.436;2023-05-10T05:56:13;101079.34;;;12.48;100.00
71970;BME280;59838;52.152;5.436;2023-05-10T05:58:39;101078.50;;;12.41;100.00
71970;BME280;59838;52.152;5.436;2023-05-10T06:01:06;101077.06;;;12.38;100.00
71970;BME280;59838;52.152;5.436;2023-05-10T06:03:32;101087.47;;;12.38;100.00
71970;BME280;59838;52.152;5.436;2023-05-10T06:06:00;101087.47;;;12.38;100.00
71970;BME280;59838;52.152;5.436;2023-05-10T06:08:26;101090.88;;;12.39;100.00
71970;BME280;59838;52.152;5.436;2023-05-10T06:10:53;101096.09;;;12.39;100.00
71970;BME280;59838;52.152;5.436;2023-05-10T06:13:19;101097.47;;;12.35;100.00
71970;BME280;59838;52.152;5.436;2023-05-10T06:15:46;101095.84;;;12.34;100.00
71970;BME280;59838;52.152;5.436;2023-05-10T06:18:12;101101.06;;;12.34;100.00
71970;BME280;59838;52.152;5.436;2023-05-10T06:20:41;101094.69;;;12.36;100.00
71970;BME280;59838;52.152;5.436;2023-05-10T06:23:07;101112.75;;;12.38;100.00
71970;BME280;59838;52.152;5.436;2023-05-10T06:25:34;101109.94;;;12.39;100.00
71970;BME280;59838;52.152;5.436;2023-05-10T06:28:01;101104.38;;;12.42;100.00
71970;BME280;59838;52.152;5.436;2023-05-10T06:30:28;101104.19;;;12.44;100.00
71970;BME280;59838;52.152;5.436;2023-05-10T06:32:56;101094.78;;;12.50;100.00
71970;BME280;59838;52.152;5.436;2023-05-10T06:35:23;101106.13;;;12.64;100.00
71970;BME280;59838;52.152;5.436;2023-05-10T06:37:50;101108.16;;;12.68;100.00
71970;BME280;59838;52.152;5.436;2023-05-10T06:40:17;101110.34;;;12.65;100.00
71970;BME280;59838;52.152;5.436;2023-05-10T06:42:44;101103.06;;;12.60;100.00
71970;BME280;59838;52.152;5.436;2023-05-10T06:45:12;101110.16;;;12.66;100.00
71970;BME280;59838;52.152;5.436;2023-05-10T06:47:39;101111.81;;;12.74;100.00
71970;BME280;59838;52.152;5.436;2023-05-10T06:50:06;101111.50;;;12.90;100.00
71970;BME280;59838;52.152;5.436;2023-05-10T06:52:33;101116.00;;;13.03;100.00
71970;BME280;59838;52.152;5.436;2023-05-10T06:54:59;101119.25;;;13.12;100.00
71970;BME280;59838;52.152;5.436;2023-05-10T06:57:26;101116.44;;;13.07;100.00
71970;BME280;59838;52.152;5.436;2023-05-10T06:59:58;101116.19;;;13.02;100.00
71970;BME280;59838;52.152;5.436;2023-05-10T07:02:25;101123.59;;;12.98;100.00
71970;BME280;59838;52.152;5.436;2023-05-10T07:04:51;101124.97;;;12.94;100.00
71970;BME280;59838;52.152;5.436;2023-05-10T07:07:18;101122.38;;;12.94;100.00
71970;BME280;59838;52.152;5.436;2023-05-10T07:09:45;101127.00;;;12.98;100.00
71970;BME280;59838;52.152;5.436;2023-05-10T07:12:11;101128.03;;;12.97;100.00
71970;BME280;59838;52.152;5.436;2023-05-10T07:14:41;101131.41;;;12.91;100.00
71970;BME280;59838;52.152;5.436;2023-05-10T07:17:07;101131.16;;;12.86;100.00
71970;BME280;59838;52.152;5.436;2023-05-10T07:19:34;101139.59;;;12.88;100.00
71970;BME280;59838;52.152;5.436;2023-05-10T07:22:00;101136.38;;;12.86;100.00
71970;BME280;59838;52.152;5.436;2023-05-10T07:24:27;101139.78;;;12.87;100.00
71970;BME280;59838;52.152;5.436;2023-05-10T07:26:53;101136.97;;;12.88;100.00
71970;BME280;59838;52.152;5.436;2023-05-10T07:29:20;101140.38;;;12.89;100.00
71970;BME280;59838;52.152;5.436;2023-05-10T07:31:46;101148.44;;;12.94;100.00
71970;BME280;59838;52.152;5.436;2023-05-10T07:34:12;101153.69;;;13.01;100.00
71970;BME280;59838;52.152;5.436;2023-05-10T07:36:39;101158.16;;;13.07;100.00
71970;BME280;59838;52.152;5.436;2023-05-10T07:39:06;101159.97;;;13.06;100.00
71970;BME280;59838;52.152;5.436;2023-05-10T07:41:33;101165.97;;;13.07;100.00
71970;BME280;59838;52.152;5.436;2023-05-10T07:44:01;101168.03;;;13.11;100.00
71970;BME280;59838;52.152;5.436;2023-05-10T07:46:27;101166.09;;;13.20;100.00
71970;BME280;59838;52.152;5.436;2023-05-10T07:48:54;101163.31;;;13.28;100.00
71970;BME280;59838;52.152;5.436;2023-05-10T07:51:21;101171.41;;;13.33;100.00
71970;BME280;59838;52.152;5.436;2023-05-10T07:53:48;101171.84;;;13.44;100.00
71970;BME280;59838;52.152;5.436;2023-05-10T07:56:27;101175.34;;;13.58;100.00
71970;BME280;59838;52.152;5.436;2023-05-10T07:58:56;101170.19;;;13.71;100.00
71970;BME280;59838;52.152;5.436;2023-05-10T08:01:23;101173.41;;;13.80;100.00
71970;BME280;59838;52.152;5.436;2023-05-10T08:03:49;101185.69;;;13.79;100.00
71970;BME280;59838;52.152;5.436;2023-05-10T08:06:18;101186.28;;;13.81;100.00
71970;BME280;59838;52.152;5.436;2023-05-10T08:08:48;101191.28;;;13.76;100.00
71970;BME280;59838;52.152;5.436;2023-05-10T08:11:20;101198.28;;;13.69;100.00
71970;BME280;59838;52.152;5.436;2023-05-10T08:13:47;101189.22;;;13.65;100.00
71970;BME280;59838;52.152;5.436;2023-05-10T08:16:15;101193.66;;;13.64;100.00
71970;BME280;59838;52.152;5.436;2023-05-10T08:18:42;101194.63;;;13.63;100.00
71970;BME280;59838;52.152;5.436;2023-05-10T08:21:09;101200.25;;;13.60;100.00
71970;BME280;59838;52.152;5.436;2023-05-10T08:23:37;101192.19;;;13.55;100.00
71970;BME280;59838;52.152;5.436;2023-05-10T08:26:04;101194.19;;;13.53;100.00
71970;BME280;59838;52.152;5.436;2023-05-10T08:28:30;101191.78;;;13.51;100.00
71970;BME280;59838;52.152;5.436;2023-05-10T08:30:57;101196.63;;;13.55;100.00
71970;BME280;59838;52.152;5.436;2023-05-10T08:33:23;101196.03;;;13.59;100.00
71970;BME280;59838;52.152;5.436;2023-05-10T08:35:50;101197.03;;;13.58;100.00
71970;BME280;59838;52.152;5.436;2023-05-10T08:38:17;101207.09;;;13.61;100.00
71970;BME280;59838;52.152;5.436;2023-05-10T08:40:44;101214.50;;;13.58;100.00
71970;BME280;59838;52.152;5.436;2023-05-10T08:43:12;101215.34;;;13.65;100.00
71970;BME280;59838;52.152;5.436;2023-05-10T08:45:44;101216.97;;;13.66;100.00
71970;BME280;59838;52.152;5.436;2023-05-10T08:48:14;101224.22;;;13.70;100.00
71970;BME280;59838;52.152;5.436;2023-05-10T08:50:41;101225.78;;;13.65;100.00
71970;BME280;59838;52.152;5.436;2023-05-10T08:53:11;101225.97;;;13.63;100.00
71970;BME280;59838;52.152;5.436;2023-05-10T08:55:38;101231.00;;;13.65;100.00
71970;BME280;59838;52.152;5.436;2023-05-10T08:58:05;101225.00;;;13.71;100.00
71970;BME280;59838;52.152;5.436;2023-05-10T09:00:32;101224.88;;;13.86;100.00
71970;BME280;59838;52.152;5.436;2023-05-10T09:03:00;101224.13;;;13.99;100.00
71970;BME280;59838;52.152;5.436;2023-05-10T09:05:27;101238.69;;;14.28;100.00
71970;BME280;59838;52.152;5.436;2023-05-10T09:07:54;101233.09;;;14.51;100.00
71970;BME280;59838;52.152;5.436;2023-05-10T09:10:21;101230.75;;;14.63;100.00
71970;BME280;59838;52.152;5.436;2023-05-10T09:12:48;101230.75;;;14.63;97.77
71970;BME280;59838;52.152;5.436;2023-05-10T09:15:16;101234.72;;;14.52;97.52
71970;BME280;59838;52.152;5.436;2023-05-10T09:17:46;101228.91;;;14.57;98.57
71970;BME280;59838;52.152;5.436;2023-05-10T09:20:13;101229.34;;;14.74;99.44
71970;BME280;59838;52.152;5.436;2023-05-10T09:22:39;101225.53;;;14.83;97.98
71970;BME280;59838;52.152;5.436;2023-05-10T09:25:11;101234.78;;;15.12;96.77
71970;BME280;59838;52.152;5.436;2023-05-10T09:27:44;101241.16;;;15.50;94.75
71970;BME280;59838;52.152;5.436;2023-05-10T09:30:17;101232.66;;;15.81;92.02
71970;BME280;59838;52.152;5.436;2023-05-10T09:32:45;101242.69;;;15.91;91.39
71970;BME280;59838;52.152;5.436;2023-05-10T09:35:15;101238.97;;;16.12;87.84
71970;BME280;59838;52.152;5.436;2023-05-10T09:37:44;101241.19;;;16.47;88.33
71970;BME280;59838;52.152;5.436;2023-05-10T09:40:14;101243.69;;;16.35;86.93
71970;BME280;59838;52.152;5.436;2023-05-10T09:42:42;101250.34;;;16.38;89.14
71970;BME280;59838;52.152;5.436;2023-05-10T09:45:09;101250.91;;;16.72;87.85
71970;BME280;59838;52.152;5.436;2023-05-10T09:47:36;101256.03;;;16.92;82.69
71970;BME280;59838;52.152;5.436;2023-05-10T09:50:03;101257.91;;;16.85;81.30
71970;BME280;59838;52.152;5.436;2023-05-10T09:55:20;101261.75;;;16.50;82.70
71970;BME280;59838;52.152;5.436;2023-05-10T09:57:47;101260.16;;;16.49;82.51
71970;BME280;59838;52.152;5.436;2023-05-10T10:00:19;101260.09;;;16.56;83.08
71970;BME280;59838;52.152;5.436;2023-05-10T10:02:48;101267.41;;;16.47;85.06
71970;BME280;59838;52.152;5.436;2023-05-10T10:05:20;101269.53;;;16.32;84.92
71970;BME280;59838;52.152;5.436;2023-05-10T10:07:47;101263.09;;;16.21;82.31
71970;BME280;59838;52.152;5.436;2023-05-10T10:10:15;101271.56;;;16.23;82.59
71970;BME280;59838;52.152;5.436;2023-05-10T10:12:42;101275.63;;;16.19;84.05
71970;BME280;59838;52.152;5.436;2023-05-10T10:15:08;101271.81;;;16.21;84.02
71970;BME280;59838;52.152;5.436;2023-05-10T10:17:36;101279.84;;;16.26;85.94
71970;BME280;59838;52.152;5.436;2023-05-10T10:20:05;101280.44;;;16.29;86.60
71970;BME280;59838;52.152;5.436;2023-05-10T10:22:36;101276.81;;;16.23;86.66
71970;BME280;59838;52.152;5.436;2023-05-10T10:25:04;101281.47;;;16.21;86.74
71970;BME280;59838;52.152;5.436;2023-05-10T10:30:25;101277.19;;;16.33;85.81
71970;BME280;59838;52.152;5.436;2023-05-10T10:33:18;101277.50;;;16.43;84.65
71970;BME280;59838;52.152;5.436;2023-05-10T10:35:55;101281.13;;;16.49;84.57
71970;BME280;59838;52.152;5.436;2023-05-10T10:38:24;101279.50;;;16.48;85.12
71970;BME280;59838;52.152;5.436;2023-05-10T10:41:09;101281.97;;;16.43;85.88
71970;BME280;59838;52.152;5.436;2023-05-10T10:43:35;101286.03;;;16.32;86.38
71970;BME280;59838;52.152;5.436;2023-05-10T10:46:15;101290.16;;;16.21;87.11
71970;BME280;59838;52.152;5.436;2023-05-10T10:48:50;101284.28;;;16.19;87.95
71970;BME280;59838;52.152;5.436;2023-05-10T10:51:17;101284.91;;;16.21;87.70
71970;BME280;59838;52.152;5.436;2023-05-10T10:53:44;101286.88;;;16.26;87.82
71970;BME280;59838;52.152;5.436;2023-05-10T10:56:13;101291.66;;;16.36;86.26
71970;BME280;59838;52.152;5.436;2023-05-10T10:58:49;101288.81;;;16.44;85.77
71970;BME280;59838;52.152;5.436;2023-05-10T11:01:18;101290.00;;;16.48;87.40
71970;BME280;59838;52.152;5.436;2023-05-10T11:06:35;101292.47;;;16.43;84.88
71970;BME280;59838;52.152;5.436;2023-05-10T11:09:07;101285.50;;;16.55;83.78
71970;BME280;59838;52.152;5.436;2023-05-10T11:11:35;101292.53;;;16.61;86.36
71970;BME280;59838;52.152;5.436;2023-05-10T11:14:06;101294.66;;;16.78;84.84
71970;BME280;59838;52.152;5.436;2023-05-10T11:16:43;101289.25;;;16.73;83.94
71970;BME280;59838;52.152;5.436;2023-05-10T11:19:11;101290.28;;;16.72;83.47
71970;BME280;59838;52.152;5.436;2023-05-10T11:21:47;101287.03;;;16.70;85.67
71970;BME280;59838;52.152;5.436;2023-05-10T11:24:19;101299.78;;;16.66;84.94
71970;BME280;59838;52.152;5.436;2023-05-10T11:26:46;101294.78;;;16.58;84.76
71970;BME280;59838;52.152;5.436;2023-05-10T11:29:16;101307.53;;;16.54;85.80
71970;BME280;59838;52.152;5.436;2023-05-10T11:31:46;101300.03;;;16.58;86.21
71970;BME280;59838;52.152;5.436;2023-05-10T11:34:32;101293.78;;;16.59;85.88
71970;BME280;59838;52.152;5.436;2023-05-10T11:37:01;101301.94;;;16.76;85.05
71970;BME280;59838;52.152;5.436;2023-05-10T11:39:29;101299.66;;;16.93;82.32
71970;BME280;59838;52.152;5.436;2023-05-10T11:41:57;101300.69;;;17.17;84.57
71970;BME280;59838;52.152;5.436;2023-05-10T11:44:30;101303.13;;;17.55;80.56
71970;BME280;59838;52.152;5.436;2023-05-10T11:47:01;101303.97;;;17.75;80.82
71970;BME280;59838;52.152;5.436;2023-05-10T11:49:29;101297.72;;;17.94;78.68
71970;BME280;59838;52.152;5.436;2023-05-10T11:52:06;101302.53;;;17.97;78.59
71970;BME280;59838;52.152;5.436;2023-05-10T11:54:33;101297.41;;;18.21;79.61
71970;BME280;59838;52.152;5.436;2023-05-10T11:57:01;101297.13;;;18.41;78.15
71970;BME280;59838;52.152;5.436;2023-05-10T11:59:30;101295.47;;;18.28;74.92
71970;BME280;59838;52.152;5.436;2023-05-10T12:02:29;101301.34;;;18.12;77.68
71970;BME280;59838;52.152;5.436;2023-05-10T12:04:56;101305.22;;;17.90;76.29
71970;BME280;59838;52.152;5.436;2023-05-10T12:07:25;101308.91;;;17.83;79.24
71970;BME280;59838;52.152;5.436;2023-05-10T12:10:06;101307.88;;;17.65;79.26
71970;BME280;59838;52.152;5.436;2023-05-10T12:12:45;101316.13;;;17.50;80.11
71970;BME280;59838;52.152;5.436;2023-05-10T12:17:45;101317.69;;;17.33;78.33
71970;BME280;59838;52.152;5.436;2023-05-10T12:20:26;101319.59;;;17.44;79.68
71970;BME280;59838;52.152;5.436;2023-05-10T12:22:55;101309.63;;;17.53;78.58
71970;BME280;59838;52.152;5.436;2023-05-10T12:25:30;101311.84;;;17.56;77.80
71970;BME280;59838;52.152;5.436;2023-05-10T12:27:58;101316.09;;;17.76;77.80
71970;BME280;59838;52.152;5.436;2023-05-10T12:30:28;101309.53;;;18.03;78.59
71970;BME280;59838;52.152;5.436;2023-05-10T12:33:07;101309.94;;;18.19;76.81
71970;BME280;59838;52.152;5.436;2023-05-10T12:35:47;101303.28;;;18.35;75.26
71970;BME280;59838;52.152;5.436;2023-05-10T12:38:32;101296.56;;;18.81;72.93
71970;BME280;59838;52.152;5.436;2023-05-10T12:41:03;101306.47;;;19.09;72.21
71970;BME280;59838;52.152;5.436;2023-05-10T12:43:30;101303.25;;;19.19;70.67
71970;BME280;59838;52.152;5.436;2023-05-10T12:45:57;101308.19;;;19.27;71.28
71970;BME280;59838;52.152;5.436;2023-05-10T12:48:24;101301.91;;;19.52;70.11
71970;BME280;59838;52.152;5.436;2023-05-10T12:50:51;101300.38;;;19.68;69.04
71970;BME280;59838;52.152;5.436;2023-05-10T12:53:17;101302.81;;;19.81;69.85
71970;BME280;59838;52.152;5.436;2023-05-10T12:55:44;101306.09;;;19.88;70.11
71970;BME280;59838;52.152;5.436;2023-05-10T12:58:10;101310.59;;;19.76;68.21
71970;BME280;59838;52.152;5.436;2023-05-10T13:00:46;101317.00;;;19.57;69.71
71970;BME280;59838;52.152;5.436;2023-05-10T13:03:12;101319.75;;;19.62;69.48
71970;BME280;59838;52.152;5.436;2023-05-10T13:05:39;101317.47;;;19.65;68.10
71970;BME280;59838;52.152;5.436;2023-05-10T13:08:05;101316.66;;;19.65;70.21
71970;BME280;59838;52.152;5.436;2023-05-10T13:10:32;101317.94;;;19.50;69.05
71970;BME280;59838;52.152;5.436;2023-05-10T13:12:59;101325.16;;;19.43;69.51
71970;BME280;59838;52.152;5.436;2023-05-10T13:15:26;101325.72;;;19.33;69.40
71970;BME280;59838;52.152;5.436;2023-05-10T13:17:53;101330.94;;;18.98;68.72